createdAt,value
2019-04-09T00:00:36.458Z,11.60
2019-04-09T00:03:15.493Z,11.60
2019-04-09T00:05:42.557Z,11.40
2019-04-09T00:08:09.818Z,11.40
2019-04-09T00:10:36.880Z,11.30
2019-04-09T00:13:03.708Z,11.30
2019-04-09T00:15:29.790Z,11.30
2019-04-09T00:17:55.875Z,11.30
2019-04-09T00:20:22.420Z,11.20
2019-04-09T00:22:49.110Z,11.10
2019-04-09T00:25:15.401Z,11.10
2019-04-09T00:27:41.467Z,11.00
2019-04-09T00:30:10.202Z,11.00
2019-04-09T00:32:36.743Z,11.00
2019-04-09T00:35:04.950Z,11.00
2019-04-09T00:37:31.466Z,11.00
2019-04-09T00:39:57.683Z,11.00
2019-04-09T00:42:23.761Z,10.90
2019-04-09T00:44:49.849Z,10.90
2019-04-09T00:47:16.327Z,10.80
2019-04-09T00:49:43.642Z,10.70
2019-04-09T00:52:10.099Z,10.60
2019-04-09T00:54:36.179Z,10.50
2019-04-09T00:57:07.288Z,10.40
2019-04-09T00:59:30.399Z,10.50
2019-04-09T01:01:57.081Z,10.30
2019-04-09T01:04:23.959Z,10.20
2019-04-09T01:06:50.235Z,10.00
2019-04-09T01:09:17.439Z,10.00
2019-04-09T01:11:43.633Z,9.90
2019-04-09T01:14:09.910Z,10.00
2019-04-09T01:16:36.130Z,10.20
2019-04-09T01:19:12.036Z,10.30
2019-04-09T01:21:31.457Z,10.40
2019-04-09T01:23:57.746Z,10.40
2019-04-09T01:26:32.068Z,10.40
2019-04-09T01:29:09.581Z,10.50
2019-04-09T01:31:44.071Z,10.30
2019-04-09T01:34:12.181Z,10.30
2019-04-09T01:36:57.818Z,10.10
2019-04-09T01:39:42.822Z,10.00
2019-04-09T01:42:10.842Z,10.10
2019-04-09T01:44:38.893Z,10.10
2019-04-09T01:47:12.657Z,10.00
2019-04-09T01:49:46.367Z,9.90
2019-04-09T01:52:32.137Z,10.00
2019-04-09T01:55:00.393Z,9.90
2019-04-09T01:57:40.495Z,9.90
2019-04-09T02:00:15.868Z,10.00
2019-04-09T02:02:46.777Z,10.00
2019-04-09T02:05:18.649Z,10.00
2019-04-09T02:08:02.138Z,9.90
2019-04-09T02:10:47.498Z,9.90
2019-04-09T02:13:25.252Z,9.80
2019-04-09T02:16:03.989Z,9.70
2019-04-09T02:18:32.175Z,9.70
2019-04-09T02:21:00.160Z,9.60
2019-04-09T02:23:28.269Z,9.50
2019-04-09T02:26:14.632Z,9.60
2019-04-09T02:28:55.032Z,9.60
2019-04-09T02:31:23.151Z,9.60
2019-04-09T02:34:04.672Z,9.50
2019-04-09T02:36:38.874Z,9.50
2019-04-09T02:39:17.969Z,9.30
2019-04-09T02:41:46.298Z,9.20
2019-04-09T02:44:31.048Z,9.10
2019-04-09T02:47:14.201Z,9.10
2019-04-09T02:49:45.609Z,9.00
2019-04-09T02:52:23.232Z,8.70
2019-04-09T02:54:51.921Z,8.50
2019-04-09T02:57:26.214Z,8.50
2019-04-09T02:59:54.241Z,8.40
2019-04-09T03:02:25.881Z,8.50
2019-04-09T03:05:00.308Z,8.50
2019-04-09T03:07:28.297Z,8.60
2019-04-09T03:10:02.162Z,8.70
2019-04-09T03:12:45.602Z,8.70
2019-04-09T03:15:14.007Z,8.60
2019-04-09T03:17:42.162Z,8.70
2019-04-09T03:20:19.250Z,8.60
2019-04-09T03:22:48.139Z,8.60
2019-04-09T03:25:22.458Z,8.60
2019-04-09T03:28:01.888Z,8.40
2019-04-09T03:30:22.498Z,8.40
2019-04-09T03:33:07.471Z,8.40
2019-04-09T03:35:40.144Z,8.60
2019-04-09T03:38:14.025Z,8.40
2019-04-09T03:40:52.007Z,8.30
2019-04-09T03:43:20.963Z,8.20
2019-04-09T03:46:05.639Z,8.30
2019-04-09T03:48:52.517Z,8.40
2019-04-09T03:51:21.290Z,8.40
2019-04-09T03:53:53.299Z,8.50
2019-04-09T03:56:21.611Z,8.10
2019-04-09T03:58:56.037Z,8.00
2019-04-09T04:01:30.666Z,7.80
2019-04-09T04:04:01.706Z,7.90
2019-04-09T04:06:36.443Z,7.90
2019-04-09T04:09:06.649Z,7.90
2019-04-09T04:11:46.752Z,7.80
2019-04-09T04:14:32.425Z,7.90
2019-04-09T04:17:06.836Z,7.80
2019-04-09T04:19:44.592Z,7.80
2019-04-09T04:22:36.360Z,8.10
2019-04-09T04:25:14.737Z,7.90
2019-04-09T04:27:42.747Z,7.80
2019-04-09T04:30:17.046Z,7.90
2019-04-09T04:32:45.056Z,7.90
2019-04-09T04:35:20.141Z,7.80
2019-04-09T04:37:54.425Z,7.90
2019-04-09T04:40:25.497Z,7.70
2019-04-09T04:42:54.305Z,7.60
2019-04-09T04:45:38.123Z,7.40
2019-04-09T04:48:12.035Z,7.60
2019-04-09T04:50:52.531Z,7.50
2019-04-09T04:53:26.609Z,7.60
2019-04-09T04:56:09.940Z,7.60
2019-04-09T04:58:55.790Z,7.60
2019-04-09T05:01:36.140Z,7.80
2019-04-09T05:04:11.092Z,7.80
2019-04-09T05:06:39.502Z,7.80
2019-04-09T05:09:08.386Z,7.80
2019-04-09T05:11:39.151Z,7.80
2019-04-09T05:14:07.537Z,7.90
2019-04-09T05:16:54.499Z,7.80
2019-04-09T05:19:25.319Z,7.80
2019-04-09T05:21:54.572Z,7.90
2019-04-09T05:24:26.757Z,7.80
2019-04-09T05:26:54.931Z,7.70
2019-04-09T05:29:36.395Z,7.70
2019-04-09T05:32:21.549Z,7.70
2019-04-09T05:34:50.482Z,7.70
2019-04-09T05:37:18.590Z,7.90
2019-04-09T05:39:46.621Z,7.80
2019-04-09T05:42:21.269Z,7.90
2019-04-09T05:44:49.557Z,7.80
2019-04-09T05:47:20.719Z,7.80
2019-04-09T05:50:06.604Z,7.70
2019-04-09T05:52:51.522Z,7.70
2019-04-09T05:55:36.861Z,7.70
2019-04-09T05:58:11.327Z,7.60
2019-04-09T06:00:56.864Z,7.80
2019-04-09T06:03:43.083Z,8.00
2019-04-09T06:06:11.558Z,8.10
2019-04-09T06:08:42.434Z,8.20
2019-04-09T06:11:09.386Z,8.20
2019-04-09T06:13:35.807Z,8.10
2019-04-09T06:16:01.918Z,8.20
2019-04-09T06:18:28.136Z,8.20
2019-04-09T06:20:54.578Z,8.10
2019-04-09T06:23:21.715Z,8.20
2019-04-09T06:25:48.036Z,8.40
2019-04-09T06:28:14.215Z,8.50
2019-04-09T06:30:40.518Z,8.70
2019-04-09T06:33:12.188Z,8.80
2019-04-09T06:35:40.453Z,9.00
2019-04-09T06:38:25.260Z,9.20
2019-04-09T06:41:11.589Z,9.30
2019-04-09T06:43:39.940Z,9.20
2019-04-09T06:46:08.010Z,9.20
2019-04-09T06:48:53.491Z,9.20
2019-04-09T06:51:35.393Z,9.20
2019-04-09T06:54:19.839Z,9.30
2019-04-09T06:56:48.073Z,9.40
2019-04-09T06:59:30.350Z,9.40
2019-04-09T07:01:58.172Z,9.30
2019-04-09T07:04:32.335Z,9.30
2019-04-09T07:07:07.297Z,9.30
2019-04-09T07:09:52.257Z,9.40
2019-04-09T07:12:23.023Z,9.50
2019-04-09T07:14:57.520Z,9.50
2019-04-09T07:17:34.037Z,9.60
2019-04-09T07:20:14.065Z,9.60
2019-04-09T07:22:45.690Z,9.50
2019-04-09T07:25:30.417Z,9.50
2019-04-09T07:28:02.300Z,9.50
2019-04-09T07:30:43.641Z,9.70
2019-04-09T07:33:21.912Z,9.70
2019-04-09T07:36:02.364Z,9.50
2019-04-09T07:38:41.323Z,9.50
2019-04-09T07:41:10.634Z,9.70
2019-04-09T07:43:39.301Z,9.90
2019-04-09T07:46:13.026Z,9.90
2019-04-09T07:48:40.663Z,10.00
2019-04-09T07:51:20.595Z,10.10
2019-04-09T07:54:04.915Z,10.00
2019-04-09T07:56:36.841Z,10.00
2019-04-09T07:59:05.392Z,10.10
2019-04-09T08:01:33.726Z,10.10
2019-04-09T08:04:13.097Z,10.00
2019-04-09T08:06:54.369Z,10.10
2019-04-09T08:09:25.248Z,10.10
2019-04-09T08:11:54.240Z,10.00
2019-04-09T08:14:35.393Z,10.00
2019-04-09T08:17:03.783Z,10.20
2019-04-09T08:19:50.109Z,10.10
2019-04-09T08:22:18.417Z,10.20
2019-04-09T08:24:59.944Z,10.40
2019-04-09T08:27:29.694Z,10.50
2019-04-09T08:30:18.214Z,10.50
2019-04-09T08:32:43.482Z,10.50
2019-04-09T08:35:18.406Z,10.60
2019-04-09T08:37:56.201Z,10.50
2019-04-09T08:40:47.905Z,10.60
2019-04-09T08:43:14.102Z,10.70
2019-04-09T08:45:57.755Z,10.80
2019-04-09T08:48:26.345Z,11.00
2019-04-09T08:50:54.748Z,11.20
2019-04-09T08:53:34.880Z,11.30
2019-04-09T08:56:08.295Z,11.40
2019-04-09T08:58:56.957Z,11.30
2019-04-09T09:01:49.949Z,11.30
2019-04-09T09:04:13.067Z,11.30
2019-04-09T09:06:51.522Z,11.30
2019-04-09T09:09:24.106Z,11.30
2019-04-09T09:12:00.926Z,11.30
2019-04-09T09:14:30.951Z,11.30
2019-04-09T09:17:07.893Z,11.40
2019-04-09T09:19:37.214Z,11.30
2019-04-09T09:22:06.324Z,11.10
2019-04-09T09:24:54.531Z,11.10
2019-04-09T09:27:29.305Z,11.30
2019-04-09T09:30:03.983Z,11.30
2019-04-09T09:32:38.060Z,11.30
2019-04-09T09:35:18.457Z,11.40
2019-04-09T09:37:59.880Z,11.30
2019-04-09T09:40:34.444Z,11.40
2019-04-09T09:43:20.451Z,11.40
2019-04-09T09:45:48.438Z,11.30
2019-04-09T09:48:24.148Z,11.30
2019-04-09T09:50:52.414Z,11.40
2019-04-09T09:53:26.708Z,11.40
2019-04-09T09:55:57.734Z,11.40
2019-04-09T09:58:40.590Z,11.30
2019-04-09T10:01:16.730Z,11.50
2019-04-09T10:03:40.190Z,11.70
2019-04-09T10:06:27.578Z,11.70
2019-04-09T10:08:54.129Z,11.90
2019-04-09T10:11:40.577Z,11.90
2019-04-09T10:14:17.965Z,11.90
2019-04-09T10:17:04.182Z,12.00
2019-04-09T10:19:33.089Z,12.10
2019-04-09T10:22:11.177Z,12.30
2019-04-09T10:24:40.371Z,12.30
2019-04-09T10:27:17.629Z,12.20
2019-04-09T10:29:54.464Z,12.20
2019-04-09T10:32:23.882Z,12.20
2019-04-09T10:35:10.428Z,12.20
2019-04-09T10:37:41.386Z,12.20
2019-04-09T10:40:16.012Z,12.40
2019-04-09T10:42:44.146Z,12.50
2019-04-09T10:45:30.197Z,12.50
2019-04-09T10:48:15.061Z,12.60
2019-04-09T10:50:46.269Z,12.50
2019-04-09T10:53:20.743Z,12.50
2019-04-09T10:56:05.835Z,12.50
2019-04-09T10:58:54.066Z,12.50
2019-04-09T11:01:42.436Z,12.40
2019-04-09T11:04:09.767Z,12.70
2019-04-09T11:06:37.508Z,12.60
2019-04-09T11:09:18.582Z,12.50
2019-04-09T11:11:50.552Z,12.50
2019-04-09T11:14:33.202Z,12.60
2019-04-09T11:17:10.716Z,12.50
2019-04-09T11:19:58.242Z,12.50
2019-04-09T11:22:28.337Z,12.70
2019-04-09T11:25:06.108Z,12.80
2019-04-09T11:27:37.538Z,12.80
2019-04-09T11:30:18.155Z,12.90
2019-04-09T11:32:50.556Z,12.90
2019-04-09T11:35:19.724Z,13.00
2019-04-09T11:38:00.046Z,13.20
2019-04-09T11:40:34.122Z,13.40
2019-04-09T11:43:16.474Z,13.60
2019-04-09T11:45:50.249Z,13.60
2019-04-09T11:48:19.360Z,13.80
2019-04-09T11:50:50.954Z,13.90
2019-04-09T11:53:34.373Z,14.00
2019-04-09T11:56:15.622Z,14.00
2019-04-09T11:58:53.520Z,14.20
2019-04-09T12:01:24.479Z,14.20
2019-04-09T12:03:53.082Z,14.10
2019-04-09T12:06:36.311Z,14.30
2019-04-09T12:09:07.624Z,14.40
2019-04-09T12:11:36.714Z,14.70
2019-04-09T12:14:22.201Z,14.90
2019-04-09T12:16:50.191Z,15.00
2019-04-09T12:19:18.199Z,15.10
2019-04-09T12:21:46.247Z,14.90
2019-04-09T12:24:23.311Z,15.10
2019-04-09T12:26:51.464Z,15.30
2019-04-09T12:29:32.891Z,15.50
2019-04-09T12:32:21.649Z,15.70
2019-04-09T12:34:53.444Z,15.70
2019-04-09T12:37:21.612Z,15.90
2019-04-09T12:40:04.576Z,16.10
2019-04-09T12:42:32.743Z,16.40
2019-04-09T12:45:17.602Z,16.40
2019-04-09T12:47:52.412Z,16.40
2019-04-09T12:50:38.298Z,16.50
2019-04-09T12:53:07.656Z,16.60
2019-04-09T12:55:36.185Z,16.60
2019-04-09T12:58:24.949Z,16.70
2019-04-09T13:00:52.638Z,16.80
2019-04-09T13:03:37.591Z,16.90
2019-04-09T13:06:15.597Z,16.80
2019-04-09T13:09:00.256Z,16.90
2019-04-09T13:11:43.475Z,17.00
2019-04-09T13:14:27.747Z,17.00
2019-04-09T13:17:08.354Z,17.10
2019-04-09T13:19:39.736Z,17.30
2019-04-09T13:22:23.621Z,17.30
2019-04-09T13:25:01.084Z,17.40
2019-04-09T13:27:47.094Z,17.60
2019-04-09T13:30:27.432Z,17.70
2019-04-09T13:33:02.500Z,17.70
2019-04-09T13:35:40.682Z,17.80
2019-04-09T13:38:17.902Z,17.80
2019-04-09T13:40:45.895Z,17.80
2019-04-09T13:43:19.702Z,18.00
2019-04-09T13:45:53.915Z,18.20
2019-04-09T13:48:30.927Z,18.50
2019-04-09T13:50:59.275Z,18.70
2019-04-09T13:53:25.545Z,18.90
2019-04-09T13:55:52.506Z,18.90
2019-04-09T13:58:18.718Z,19.00
2019-04-09T14:00:46.137Z,19.00
2019-04-09T14:03:27.883Z,19.20
2019-04-09T14:05:46.416Z,19.00
2019-04-09T14:08:12.958Z,18.70
2019-04-09T14:10:47.867Z,18.70
2019-04-09T14:13:07.782Z,18.70
2019-04-09T14:15:34.377Z,18.90
2019-04-09T14:18:01.196Z,18.90
2019-04-09T14:20:27.596Z,18.80
2019-04-09T14:22:53.808Z,18.70
2019-04-09T14:25:19.889Z,18.70
2019-04-09T14:27:46.891Z,18.90
2019-04-09T14:30:13.905Z,19.00
2019-04-09T14:32:40.774Z,19.00
2019-04-09T14:35:07.659Z,19.00
2019-04-09T14:37:33.983Z,18.80
2019-04-09T14:45:32.705Z,18.60
2019-04-09T14:47:58.992Z,18.40
2019-04-09T14:50:26.107Z,17.80
2019-04-09T14:52:59.989Z,17.30
2019-04-09T14:55:21.385Z,16.90
2019-04-09T14:57:47.775Z,16.60
2019-04-09T15:00:18.885Z,16.10
2019-04-09T15:02:45.010Z,15.50
2019-04-09T15:05:11.241Z,14.60
2019-04-09T15:07:37.443Z,14.20
2019-04-09T15:10:04.865Z,14.10
2019-04-09T15:12:31.134Z,13.70
2019-04-09T15:14:57.538Z,13.60
2019-04-09T15:17:23.796Z,13.70
2019-04-09T15:19:50.384Z,13.70
2019-04-09T15:22:18.393Z,13.80
2019-04-09T15:24:44.764Z,13.80
2019-04-09T15:27:11.096Z,13.80
2019-04-09T15:29:37.221Z,13.90
2019-04-09T15:32:04.151Z,13.90
2019-04-09T15:34:30.969Z,13.80
2019-04-09T15:36:58.087Z,13.70
2019-04-09T15:39:25.263Z,13.70
2019-04-09T15:41:51.532Z,13.50
2019-04-09T15:44:17.760Z,13.50
2019-04-09T15:46:44.180Z,13.40
2019-04-09T15:49:11.487Z,13.50
2019-04-09T15:51:37.874Z,13.40
2019-04-09T15:54:04.106Z,13.50
2019-04-09T15:56:31.413Z,13.60
2019-04-09T15:58:57.652Z,13.80
2019-04-09T16:01:23.782Z,13.90
2019-04-09T16:03:55.405Z,13.80
2019-04-09T16:06:18.020Z,13.70
2019-04-09T16:08:45.168Z,13.70
2019-04-09T16:11:12.595Z,13.70
2019-04-09T16:13:39.174Z,13.90
2019-04-09T16:16:05.601Z,13.90
2019-04-09T16:18:32.094Z,13.80
2019-04-09T16:20:59.122Z,13.70
2019-04-09T16:23:25.396Z,13.70
2019-04-09T16:25:51.538Z,13.60
2019-04-09T16:28:17.678Z,13.70
2019-04-09T16:30:44.097Z,13.70
2019-04-09T16:33:14.360Z,13.60
2019-04-09T16:35:39.154Z,13.60
2019-04-09T16:38:05.450Z,13.60
2019-04-09T16:40:31.587Z,13.70
2019-04-09T16:43:04.021Z,13.70
2019-04-09T16:45:31.234Z,13.60
2019-04-09T16:47:57.762Z,13.60
2019-04-09T16:50:25.175Z,13.50
2019-04-09T16:52:51.595Z,13.60
2019-04-09T16:55:17.902Z,13.50
2019-04-09T16:57:55.230Z,13.50
2019-04-09T17:00:13.702Z,13.50
2019-04-09T17:02:40.640Z,13.50
2019-04-09T17:05:07.665Z,13.50
2019-04-09T17:07:33.914Z,13.50
2019-04-09T17:10:03.611Z,13.50
2019-04-09T17:12:30.179Z,13.50
2019-04-09T17:14:56.418Z,13.50
2019-04-09T17:17:22.671Z,13.50
2019-04-09T17:19:51.566Z,13.40
2019-04-09T17:22:17.173Z,13.40
2019-04-09T17:24:43.820Z,13.40
2019-04-09T17:27:09.986Z,13.40
2019-04-09T17:29:37.256Z,13.30
2019-04-09T17:32:03.515Z,13.30
2019-04-09T17:34:33.817Z,13.10
2019-04-09T17:36:57.629Z,13.10
2019-04-09T17:39:23.974Z,13.00
2019-04-09T17:42:01.617Z,13.00
2019-04-09T17:44:19.097Z,13.00
2019-04-09T17:46:45.562Z,12.90
2019-04-09T17:49:11.669Z,12.90
2019-04-09T17:51:37.759Z,12.70
2019-04-09T17:54:04.812Z,12.70
2019-04-09T17:56:32.118Z,12.50
2019-04-09T17:58:58.598Z,12.60
2019-04-09T18:01:24.839Z,12.50
2019-04-09T18:03:51.174Z,12.40
2019-04-09T18:06:18.000Z,12.30
2019-04-09T18:08:44.243Z,12.20
2019-04-09T18:11:10.427Z,12.10
2019-04-09T18:13:36.767Z,12.10
2019-04-09T18:16:03.543Z,12.00
2019-04-09T18:18:31.408Z,12.10
2019-04-09T18:20:58.421Z,12.10
2019-04-09T18:23:25.280Z,12.10
2019-04-09T18:25:59.104Z,12.00
2019-04-09T18:28:21.000Z,12.00
2019-04-09T18:30:47.218Z,12.00
2019-04-09T18:33:14.072Z,11.90
2019-04-09T18:35:40.346Z,11.90
2019-04-09T18:38:06.516Z,11.90
2019-04-09T18:40:32.801Z,11.80
2019-04-09T18:43:00.814Z,11.80
2019-04-09T18:45:27.178Z,11.70
2019-04-09T18:47:53.911Z,11.60
2019-04-09T18:50:20.161Z,11.60
2019-04-09T18:52:46.745Z,11.60
2019-04-09T18:55:13.208Z,11.50
2019-04-09T18:57:39.542Z,11.60
2019-04-09T19:00:10.066Z,11.50
2019-04-09T19:02:36.634Z,11.30
2019-04-09T19:05:11.105Z,11.30
2019-04-09T19:07:34.271Z,11.30
2019-04-09T19:10:01.030Z,11.30
2019-04-09T19:12:27.205Z,11.30
2019-04-09T19:14:54.545Z,11.20
2019-04-09T19:17:21.278Z,11.30
2019-04-09T19:19:47.601Z,11.30
2019-04-09T19:22:13.700Z,11.20
2019-04-09T19:24:39.852Z,11.20
2019-04-09T19:27:06.060Z,11.10
2019-04-09T19:29:32.889Z,11.20
2019-04-09T19:31:59.900Z,11.20
2019-04-09T19:34:26.191Z,11.30
2019-04-09T19:36:52.624Z,11.30
2019-04-09T19:39:19.083Z,11.20
2019-04-09T19:41:45.257Z,11.30
2019-04-09T19:44:11.432Z,11.20
2019-04-09T19:46:38.543Z,11.20
2019-04-09T19:49:04.854Z,11.20
2019-04-09T19:51:31.398Z,11.20
2019-04-09T19:53:58.160Z,11.20
2019-04-09T19:56:24.909Z,11.10
2019-04-09T19:58:52.879Z,11.20
2019-04-09T20:01:19.903Z,11.20
2019-04-09T20:03:47.717Z,11.10
2019-04-09T20:06:15.138Z,11.10
2019-04-09T20:08:43.101Z,11.10
2019-04-09T20:11:09.451Z,11.00
2019-04-09T20:13:35.674Z,10.90
2019-04-09T20:16:02.519Z,10.90
2019-04-09T20:18:29.323Z,10.90
2019-04-09T20:20:55.520Z,10.90
2019-04-09T20:23:23.626Z,10.90
2019-04-09T20:25:49.663Z,11.00
2019-04-09T20:28:15.813Z,10.90
2019-04-09T20:30:42.032Z,10.90
2019-04-09T20:33:08.222Z,10.90
2019-04-09T20:35:43.622Z,10.90
2019-04-09T20:38:02.635Z,10.90
2019-04-09T20:40:30.030Z,10.90
2019-04-09T20:42:57.238Z,11.00
2019-04-09T20:45:23.437Z,11.00
2019-04-09T20:47:50.797Z,10.90
2019-04-09T20:50:17.310Z,10.90
2019-04-09T20:52:43.964Z,10.80
2019-04-09T20:55:13.472Z,10.80
2019-04-09T20:57:40.012Z,10.80
2019-04-09T21:00:26.003Z,10.70
2019-04-09T21:02:56.874Z,10.80
2019-04-09T21:05:23.266Z,11.00
2019-04-09T21:07:56.873Z,10.80
2019-04-09T21:10:22.955Z,10.90
2019-04-09T21:12:49.087Z,10.80
2019-04-09T21:15:16.435Z,10.90
2019-04-09T21:18:02.696Z,10.90
2019-04-09T21:20:28.908Z,10.90
2019-04-09T21:22:55.132Z,10.90
2019-04-09T21:25:21.266Z,10.90
2019-04-09T21:27:47.678Z,10.90
2019-04-09T21:30:15.587Z,10.80
2019-04-09T21:32:42.394Z,10.80
2019-04-09T21:35:08.919Z,10.80
2019-04-09T21:37:35.909Z,10.80
2019-04-09T21:40:05.699Z,10.70
2019-04-09T21:42:31.985Z,10.60
2019-04-09T21:44:58.081Z,10.70
2019-04-09T21:47:24.730Z,10.70
2019-04-09T21:49:50.999Z,10.70
2019-04-09T21:52:17.089Z,10.70
2019-04-09T21:54:43.989Z,10.70
2019-04-09T21:57:11.296Z,10.70
2019-04-09T21:59:37.557Z,10.60
2019-04-09T22:02:05.085Z,10.70
2019-04-09T22:04:31.637Z,10.60
2019-04-09T22:06:58.789Z,10.70
2019-04-09T22:09:38.523Z,10.70
2019-04-09T22:12:04.887Z,10.60
2019-04-09T22:14:31.062Z,10.70
2019-04-09T22:16:57.335Z,10.70
2019-04-09T22:19:24.181Z,10.80
2019-04-09T22:21:50.485Z,10.80
2019-04-09T22:24:16.701Z,10.70
2019-04-09T22:26:42.776Z,10.80
2019-04-09T22:29:09.222Z,10.60
2019-04-09T22:31:36.363Z,10.70
2019-04-09T22:34:03.677Z,10.80
2019-04-09T22:36:37.185Z,10.80
2019-04-09T22:38:58.006Z,10.80
2019-04-09T22:41:24.650Z,10.80
2019-04-09T22:43:51.070Z,10.90
2019-04-09T22:46:18.135Z,10.90
2019-04-09T22:48:44.648Z,10.70
2019-04-09T22:51:10.959Z,10.80
2019-04-09T22:53:37.033Z,10.80
2019-04-09T22:56:03.189Z,10.80
2019-04-09T22:58:29.271Z,10.80
2019-04-09T23:00:57.275Z,10.80
2019-04-09T23:03:34.527Z,10.80
2019-04-09T23:06:17.698Z,10.70
2019-04-09T23:08:45.728Z,10.70
2019-04-09T23:11:14.743Z,10.70
2019-04-09T23:13:41.887Z,10.70
2019-04-09T23:16:08.825Z,10.70
2019-04-09T23:18:35.196Z,10.80
2019-04-09T23:21:01.522Z,10.80
2019-04-09T23:23:27.613Z,10.80
2019-04-09T23:25:53.713Z,10.80
2019-04-09T23:28:19.821Z,10.80
2019-04-09T23:30:46.285Z,10.80
2019-04-09T23:33:12.566Z,10.70
2019-04-09T23:35:39.237Z,10.80
2019-04-09T23:38:05.508Z,10.80
2019-04-09T23:40:31.735Z,10.80
2019-04-09T23:42:57.925Z,10.80
2019-04-09T23:45:24.272Z,10.80
2019-04-09T23:47:51.310Z,10.70
2019-04-09T23:50:18.439Z,10.80
2019-04-09T23:52:44.711Z,10.80
2019-04-09T23:55:11.027Z,10.70
2019-04-09T23:57:37.102Z,10.60
